Time;durP1;ratioP1;P1;durP2;ratioP2;P2;SDS_P1;SDS_P2;PMS_P1;PMS_P2;Temp;Humidity;BMP_temperature;BMP_pressure;BME280_temperature;BME280_humidity;BME280_pressure;Samples;Min_cycle;Max_cycle;Signal;HPM_P1;HPM_P2
2023/02/24 00:00:32;;;;;;;18.53;12.27;;;8.00;99.90;;;;;;7384587;19;20317;-78
2023/02/24 00:03:04;;;;;;;19.92;10.90;;;8.00;99.90;;;;;;7385309;19;20360;-78
2023/02/24 00:05:33;;;;;;;18.75;11.90;;;8.00;99.90;;;;;;7383314;19;20337;-78
2023/02/24 00:07:58;;;;;;;17.33;11.77;;;7.90;99.90;;;;;;7383921;19;20416;-78
2023/02/24 00:10:24;;;;;;;16.38;11.43;;;7.90;99.90;;;;;;7383349;19;20417;-78
2023/02/24 00:12:52;;;;;;;18.13;11.25;;;7.90;99.90;;;;;;7384948;19;20385;-78
2023/02/24 00:15:19;;;;;;;17.55;11.20;;;7.90;99.90;;;;;;7383640;19;21187;-78
2023/02/24 00:17:45;;;;;;;17.42;11.07;;;7.90;99.90;;;;;;7382647;19;20400;-78
2023/02/24 00:20:11;;;;;;;18.08;11.25;;;7.90;99.90;;;;;;7384153;19;20345;-78
2023/02/24 00:22:40;;;;;;;18.27;11.13;;;8.00;99.90;;;;;;7383029;19;20333;-78
2023/02/24 00:25:06;;;;;;;16.30;11.77;;;7.80;99.90;;;;;;7382538;19;20360;-78
2023/02/24 00:27:31;;;;;;;17.27;10.55;;;7.90;99.90;;;;;;7381315;19;20329;-78
2023/02/24 00:29:57;;;;;;;17.03;11.17;;;7.80;99.90;;;;;;7383108;19;20352;-78
2023/02/24 00:32:23;;;;;;;19.13;11.50;;;7.80;99.90;;;;;;7379223;19;20371;-78
2023/02/24 00:34:48;;;;;;;16.80;10.90;;;7.80;99.90;;;;;;7379714;19;22045;-79
2023/02/24 00:37:14;;;;;;;15.23;10.18;;;7.80;99.90;;;;;;7381043;19;20328;-78
2023/02/24 00:39:40;;;;;;;15.70;10.63;;;7.70;99.90;;;;;;7377817;19;20313;-79
2023/02/24 00:42:06;;;;;;;16.30;10.90;;;7.70;99.90;;;;;;7377716;19;20959;-78
2023/02/24 00:44:36;;;;;;;15.35;10.77;;;7.60;99.90;;;;;;7380979;19;20395;-78
2023/02/24 00:47:03;;;;;;;15.48;10.13;;;7.70;99.90;;;;;;7377498;19;20325;-80
2023/02/24 00:49:29;;;;;;;16.45;9.52;;;7.50;99.90;;;;;;7380943;19;20320;-79
2023/02/24 00:51:56;;;;;;;14.27;8.77;;;7.50;99.90;;;;;;7379840;19;20376;-79
2023/02/24 00:54:24;;;;;;;13.27;9.02;;;7.50;99.90;;;;;;7383758;19;20419;-80
2023/02/24 00:56:49;;;;;;;13.43;8.77;;;7.40;99.90;;;;;;7381449;19;20337;-79
2023/02/24 00:59:17;;;;;;;12.70;7.97;;;7.40;99.90;;;;;;7381001;19;20632;-80
2023/02/24 01:01:44;;;;;;;16.48;8.77;;;7.30;99.90;;;;;;7380923;19;20392;-79
2023/02/24 01:04:10;;;;;;;14.02;9.07;;;7.30;99.90;;;;;;7381731;19;20349;-79
2023/02/24 01:06:41;;;;;;;14.23;9.10;;;7.30;99.90;;;;;;7376338;19;20422;-79
2023/02/24 01:09:13;;;;;;;14.30;8.82;;;7.30;99.90;;;;;;7379567;19;20349;-79
2023/02/24 01:14:26;;;;;;;15.97;9.70;;;7.30;99.90;;;;;;7280176;19;2004305;-79
2023/02/24 01:16:51;;;;;;;14.50;8.90;;;7.30;99.90;;;;;;7382415;19;20340;-80
2023/02/24 01:19:18;;;;;;;19.23;9.27;;;7.30;99.90;;;;;;7380378;19;20336;-79
2023/02/24 01:21:45;;;;;;;16.25;8.98;;;7.20;99.90;;;;;;7380474;19;20384;-79
2023/02/24 01:24:14;;;;;;;14.30;8.73;;;7.10;99.90;;;;;;7380402;19;20343;-79
2023/02/24 01:26:40;;;;;;;16.77;9.50;;;7.10;99.90;;;;;;7379209;19;20333;-78
2023/02/24 01:29:08;;;;;;;15.10;8.90;;;7.00;99.90;;;;;;7377843;19;20365;-78
2023/02/24 01:31:37;;;;;;;15.50;8.93;;;7.00;99.90;;;;;;7378561;19;20347;-78
2023/02/24 01:34:04;;;;;;;14.60;8.88;;;7.00;99.90;;;;;;7380387;19;20354;-79
2023/02/24 01:36:30;;;;;;;16.08;9.05;;;7.00;99.90;;;;;;7377388;19;20328;-79
2023/02/24 01:38:56;;;;;;;17.97;9.47;;;6.90;99.90;;;;;;7377519;19;20336;-79
2023/02/24 01:41:22;;;;;;;13.77;9.02;;;6.90;99.90;;;;;;7380988;19;20320;-79
2023/02/24 01:44:04;;;;;;;16.67;9.50;;;6.90;99.90;;;;;;7380237;19;20379;-78
2023/02/24 01:46:31;;;;;;;16.92;10.05;;;6.80;99.90;;;;;;7273719;19;2004494;-78
2023/02/24 01:49:28;;;;;;;16.60;9.13;;;6.80;99.90;;;;;;7377817;19;20336;-79
2023/02/24 01:52:21;;;;;;;18.30;9.00;;;6.80;99.90;;;;;;7275789;19;2004432;-79
2023/02/24 01:54:50;;;;;;;15.23;8.88;;;6.80;99.90;;;;;;7377760;19;20335;-78
2023/02/24 01:57:22;;;;;;;16.30;9.13;;;6.80;99.90;;;;;;7378495;19;20293;-78
2023/02/24 01:59:50;;;;;;;19.17;9.07;;;6.80;99.90;;;;;;7379691;19;20340;-79
2023/02/24 02:02:16;;;;;;;16.67;9.27;;;6.70;99.90;;;;;;7378130;19;20866;-78
2023/02/24 02:04:55;;;;;;;17.73;9.27;;;6.70;99.90;;;;;;7380976;19;20334;-78
2023/02/24 02:07:22;;;;;;;15.77;9.32;;;6.70;99.90;;;;;;7381649;19;20401;-78
2023/02/24 02:09:48;;;;;;;16.05;8.98;;;6.70;99.90;;;;;;7383382;19;20329;-78
2023/02/24 02:12:14;;;;;;;17.80;9.60;;;6.70;99.90;;;;;;7387064;19;20839;-78
2023/02/24 02:14:42;;;;;;;17.40;9.33;;;6.70;99.90;;;;;;7388253;19;20321;-78
2023/02/24 02:17:35;;;;;;;15.05;9.60;;;6.70;99.90;;;;;;7386532;19;20344;-78
2023/02/24 02:20:16;;;;;;;20.05;9.40;;;6.70;99.90;;;;;;7285467;19;2004909;-78
2023/02/24 02:23:19;;;;;;;15.45;9.23;;;6.70;99.90;;;;;;7389627;19;20323;-77
2023/02/24 02:25:53;;;;;;;17.45;9.45;;;6.70;99.90;;;;;;7284993;19;2004751;-78
2023/02/24 02:28:45;;;;;;;19.00;10.43;;;6.70;99.90;;;;;;7389510;19;20328;-78
2023/02/24 02:31:27;;;;;;;16.07;9.13;;;6.70;99.90;;;;;;7284686;19;2004431;-78
2023/02/24 02:34:05;;;;;;;17.93;9.80;;;6.60;99.90;;;;;;7287164;19;2004382;-77
2023/02/24 02:36:35;;;;;;;16.98;9.52;;;6.60;99.90;;;;;;7386297;19;20668;-77
2023/02/24 02:39:14;;;;;;;14.88;8.90;;;6.60;99.90;;;;;;7388638;19;20447;-77
2023/02/24 02:41:53;;;;;;;18.45;9.73;;;6.60;99.90;;;;;;7389573;19;20383;-78
2023/02/24 02:44:22;;;;;;;16.42;9.55;;;6.60;99.90;;;;;;7389720;19;20312;-78
2023/02/24 02:46:52;;;;;;;16.80;9.55;;;6.60;99.90;;;;;;7386896;19;20665;-78
2023/02/24 02:49:39;;;;;;;18.40;9.70;;;6.70;99.90;;;;;;7387498;19;20886;-78
2023/02/24 02:52:12;;;;;;;15.25;8.85;;;6.50;99.90;;;;;;7284294;19;2005296;-79
2023/02/24 02:54:44;;;;;;;15.73;8.90;;;6.60;99.90;;;;;;7385186;19;20855;-79
2023/02/24 02:57:17;;;;;;;15.48;9.00;;;6.70;99.90;;;;;;7383409;19;20348;-79
2023/02/24 02:59:48;;;;;;;16.80;8.35;;;6.60;99.90;;;;;;7382516;19;20329;-79
2023/02/24 03:02:16;;;;;;;17.85;9.27;;;6.60;99.90;;;;;;7381238;19;20332;-79
2023/02/24 03:04:50;;;;;;;12.60;8.18;;;6.50;99.90;;;;;;7383009;19;20333;-79
2023/02/24 03:07:16;;;;;;;19.27;9.10;;;6.50;99.90;;;;;;7383480;19;20379;-80
2023/02/24 03:09:43;;;;;;;17.63;9.13;;;6.50;99.90;;;;;;7382683;19;20328;-79
2023/02/24 03:12:11;;;;;;;14.87;8.63;;;6.50;99.90;;;;;;7384037;19;20428;-78
2023/02/24 03:14:49;;;;;;;16.48;8.98;;;6.50;99.90;;;;;;7383238;19;20312;-79
2023/02/24 03:17:20;;;;;;;15.40;8.57;;;6.50;99.90;;;;;;7383135;19;20308;-78
2023/02/24 03:19:45;;;;;;;14.02;8.50;;;6.50;99.90;;;;;;7382992;19;20312;-78
2023/02/24 03:22:33;;;;;;;13.60;8.43;;;6.50;99.90;;;;;;7382812;19;20384;-78
2023/02/24 03:25:01;;;;;;;15.20;8.67;;;6.50;99.90;;;;;;7280824;19;2004541;-79
2023/02/24 03:27:41;;;;;;;15.98;8.38;;;6.40;99.90;;;;;;7380194;19;20348;-80
2023/02/24 03:30:14;;;;;;;13.43;8.60;;;6.40;99.90;;;;;;7382002;19;20352;-78
2023/02/24 03:32:50;;;;;;;14.40;8.00;;;6.40;99.90;;;;;;7382264;19;20336;-78
2023/02/24 03:35:20;;;;;;;16.30;8.32;;;6.40;99.90;;;;;;7381657;19;20321;-81
2023/02/24 03:37:46;;;;;;;15.02;8.45;;;6.40;99.90;;;;;;7381081;19;21056;-78
2023/02/24 03:40:13;;;;;;;13.65;8.30;;;6.30;99.90;;;;;;7382814;19;20333;-78
2023/02/24 03:42:42;;;;;;;15.13;8.77;;;6.40;99.90;;;;;;7383636;19;20327;-79
2023/02/24 03:45:08;;;;;;;15.45;8.80;;;6.40;99.90;;;;;;7383037;19;20333;-78
2023/02/24 03:47:34;;;;;;;15.45;8.13;;;6.30;99.90;;;;;;7381771;19;20866;-78
2023/02/24 03:50:03;;;;;;;14.23;8.13;;;6.30;99.90;;;;;;7383441;19;20349;-78
2023/02/24 03:52:51;;;;;;;14.10;7.85;;;6.30;99.90;;;;;;7380950;19;20843;-78
2023/02/24 03:55:25;;;;;;;13.95;8.00;;;6.30;99.90;;;;;;7382915;19;20296;-78
2023/02/24 03:58:12;;;;;;;17.90;8.43;;;6.30;99.90;;;;;;7382094;19;21040;-78
2023/02/24 04:00:49;;;;;;;14.85;7.90;;;6.30;99.90;;;;;;7280124;19;2004497;-79
2023/02/24 04:03:26;;;;;;;15.85;8.05;;;6.30;99.90;;;;;;7384701;19;20329;-78
2023/02/24 04:06:23;;;;;;;13.23;7.22;;;6.30;99.90;;;;;;7273965;19;2004238;-79
2023/02/24 04:08:51;;;;;;;13.83;7.17;;;6.30;99.90;;;;;;7381228;19;20313;-78
2023/02/24 04:11:22;;;;;;;13.75;7.35;;;6.20;99.90;;;;;;7381817;19;20404;-78
2023/02/24 04:14:05;;;;;;;10.25;6.80;;;6.10;99.90;;;;;;7383773;19;20446;-79
2023/02/24 04:16:38;;;;;;;11.95;5.97;;;6.20;99.90;;;;;;7280132;19;2004293;-78
2023/02/24 04:19:08;;;;;;;12.77;6.53;;;6.20;99.90;;;;;;7379811;19;20352;-78
2023/02/24 04:21:35;;;;;;;11.77;5.97;;;6.10;99.90;;;;;;7382108;19;20320;-78
2023/02/24 04:24:07;;;;;;;12.25;5.90;;;6.10;99.90;;;;;;7381731;19;20879;-78
2023/02/24 04:26:33;;;;;;;10.50;5.27;;;6.10;99.90;;;;;;7380991;19;20317;-78
2023/02/24 04:28:58;;;;;;;12.17;5.77;;;6.00;99.90;;;;;;7380285;19;20379;-78
2023/02/24 04:31:24;;;;;;;12.23;6.03;;;6.00;99.90;;;;;;7380377;19;20839;-76
2023/02/24 04:33:52;;;;;;;6.97;4.40;;;6.00;99.90;;;;;;7381947;19;20368;-78
2023/02/24 04:36:20;;;;;;;6.55;4.05;;;5.80;99.90;;;;;;7380236;19;20316;-78
2023/02/24 04:38:47;;;;;;;7.17;3.73;;;5.70;99.90;;;;;;7381896;19;20400;-78
2023/02/24 04:41:19;;;;;;;6.07;3.70;;;5.70;99.90;;;;;;7381658;19;20352;-78
2023/02/24 04:43:47;;;;;;;6.65;4.20;;;5.70;99.90;;;;;;7381811;19;20309;-80
2023/02/24 04:46:12;;;;;;;6.07;4.00;;;5.70;99.90;;;;;;7380586;19;20356;-78
2023/02/24 04:48:38;;;;;;;7.87;4.30;;;5.60;99.90;;;;;;7378919;19;20309;-78
2023/02/24 04:51:05;;;;;;;6.93;3.90;;;5.60;99.90;;;;;;7381528;19;20403;-78
2023/02/24 04:53:30;;;;;;;8.98;3.80;;;5.50;99.90;;;;;;7382514;19;20776;-79
2023/02/24 04:55:57;;;;;;;8.27;3.93;;;5.40;99.90;;;;;;7379798;19;20323;-79
2023/02/24 04:58:26;;;;;;;7.67;3.43;;;5.50;99.90;;;;;;7381269;19;20941;-78
2023/02/24 05:00:53;;;;;;;6.57;3.40;;;5.30;99.90;;;;;;7381615;19;20356;-78
2023/02/24 05:03:20;;;;;;;5.75;2.92;;;5.30;99.90;;;;;;7384670;19;20300;-79
2023/02/24 05:05:50;;;;;;;9.80;3.58;;;5.10;99.90;;;;;;7380441;19;20319;-78
2023/02/24 05:08:16;;;;;;;5.23;2.97;;;5.00;99.90;;;;;;7379119;19;20946;-78
2023/02/24 05:10:43;;;;;;;5.30;2.70;;;4.90;99.90;;;;;;7371004;19;20316;-79
2023/02/24 05:13:13;;;;;;;5.20;3.08;;;4.90;99.90;;;;;;7381626;19;20375;-78
2023/02/24 05:15:40;;;;;;;4.75;3.15;;;4.90;99.90;;;;;;7381161;19;20412;-78
2023/02/24 05:18:06;;;;;;;4.53;3.22;;;4.80;99.90;;;;;;7378828;19;20353;-78
2023/02/24 05:23:26;;;;;;;5.35;2.90;;;4.70;99.90;;;;;;7381422;19;20741;-78
2023/02/24 05:25:53;;;;;;;5.13;3.43;;;4.80;99.90;;;;;;7380569;19;20340;-78
2023/02/24 05:28:22;;;;;;;5.77;2.97;;;4.70;99.90;;;;;;7379055;19;20305;-78
2023/02/24 05:30:49;;;;;;;5.78;3.75;;;4.70;99.90;;;;;;7380569;19;20333;-79
2023/02/24 05:33:20;;;;;;;7.97;4.10;;;4.60;99.90;;;;;;7380996;19;20347;-78
2023/02/24 05:35:49;;;;;;;9.20;4.97;;;4.60;99.90;;;;;;7380163;19;20416;-78
2023/02/24 05:38:18;;;;;;;11.55;4.63;;;4.50;99.90;;;;;;7381681;19;20328;-77
2023/02/24 05:40:47;;;;;;;9.63;4.30;;;4.40;99.90;;;;;;7381639;19;20337;-78
2023/02/24 05:43:17;;;;;;;11.90;4.55;;;4.30;99.90;;;;;;7387060;19;20343;-77
2023/02/24 05:45:44;;;;;;;8.40;4.32;;;4.30;99.90;;;;;;7387892;19;21180;-78
2023/02/24 05:48:13;;;;;;;8.77;4.00;;;4.20;99.90;;;;;;7387862;19;20341;-78
2023/02/24 05:50:49;;;;;;;7.57;3.50;;;4.20;99.90;;;;;;7385408;19;20384;-77
2023/02/24 05:53:15;;;;;;;9.93;3.97;;;4.20;99.90;;;;;;7387846;19;20396;-77
2023/02/24 05:55:42;;;;;;;8.85;3.92;;;4.10;99.90;;;;;;7386591;19;20850;-77
2023/02/24 05:58:07;;;;;;;9.00;3.65;;;4.10;99.90;;;;;;7385253;19;20355;-78
2023/02/24 06:00:37;;;;;;;6.87;3.43;;;4.10;99.90;;;;;;7385518;19;20312;-77
2023/02/24 06:03:08;;;;;;;7.50;3.03;;;4.10;99.90;;;;;;7386959;19;20762;-77
2023/02/24 06:05:34;;;;;;;8.77;3.33;;;4.10;99.90;;;;;;7387185;19;20881;-77
2023/02/24 06:08:10;;;;;;;10.68;3.75;;;4.10;99.90;;;;;;7384398;19;20341;-77
2023/02/24 06:10:36;;;;;;;6.88;3.40;;;4.10;99.90;;;;;;7387410;19;20670;-77
2023/02/24 06:13:02;;;;;;;7.78;3.03;;;3.90;99.90;;;;;;7388799;19;20964;-79
2023/02/24 06:15:28;;;;;;;6.90;2.97;;;4.00;99.90;;;;;;7385289;19;20305;-76
2023/02/24 06:17:59;;;;;;;4.83;2.50;;;3.90;99.90;;;;;;7385422;19;20340;-77
2023/02/24 06:20:25;;;;;;;4.40;2.40;;;3.90;99.90;;;;;;7282972;19;2004358;-76
2023/02/24 06:22:53;;;;;;;5.90;2.17;;;3.90;99.90;;;;;;7387390;19;20347;-77
2023/02/24 06:25:24;;;;;;;5.50;2.55;;;3.70;99.90;;;;;;7385384;19;20308;-78
2023/02/24 06:27:53;;;;;;;4.00;2.10;;;3.70;99.90;;;;;;7384904;19;20335;-77
2023/02/24 06:30:21;;;;;;;4.78;2.42;;;3.70;99.90;;;;;;7385410;19;20316;-77
2023/02/24 06:32:47;;;;;;;2.45;1.88;;;3.70;99.90;;;;;;7386371;19;20337;-80
2023/02/24 06:35:13;;;;;;;4.53;2.25;;;3.70;99.90;;;;;;7385604;19;20341;-82
2023/02/24 06:37:39;;;;;;;4.27;2.10;;;3.60;99.90;;;;;;7383875;19;21005;-79
2023/02/24 06:40:14;;;;;;;8.75;2.45;;;3.50;99.90;;;;;;7383847;19;20373;-82
2023/02/24 06:42:43;;;;;;;3.40;1.98;;;3.50;99.90;;;;;;7386675;19;20317;-79
2023/02/24 06:45:10;;;;;;;3.58;1.92;;;3.50;99.90;;;;;;7385747;19;20970;-79
2023/02/24 06:47:36;;;;;;;8.80;2.30;;;3.50;99.90;;;;;;7362881;19;20348;-79
2023/02/24 06:50:05;;;;;;;4.53;2.37;;;3.50;99.90;;;;;;7385094;19;20332;-80
2023/02/24 06:52:31;;;;;;;4.60;1.90;;;3.40;99.90;;;;;;7388116;19;20325;-79
2023/02/24 06:54:56;;;;;;;6.00;2.28;;;3.50;99.90;;;;;;7387687;19;20366;-77
2023/02/24 06:57:22;;;;;;;4.47;2.20;;;3.50;99.90;;;;;;7381560;19;20316;-78
2023/02/24 06:59:47;;;;;;;5.03;2.10;;;3.50;99.90;;;;;;7384163;19;20412;-77
2023/02/24 07:02:13;;;;;;;7.07;2.40;;;3.50;99.90;;;;;;7386376;19;20344;-77
2023/02/24 07:04:45;;;;;;;4.47;2.03;;;3.50;99.90;;;;;;7385315;19;20332;-77
2023/02/24 07:07:12;;;;;;;7.13;2.90;;;3.50;99.90;;;;;;7390268;19;20341;-76
2023/02/24 07:09:40;;;;;;;5.03;2.10;;;3.50;99.90;;;;;;7380347;19;20352;-77
2023/02/24 07:12:06;;;;;;;3.60;2.00;;;3.50;99.90;;;;;;7387984;19;20337;-77
2023/02/24 07:14:32;;;;;;;4.22;2.13;;;3.60;99.90;;;;;;7386186;19;20333;-78
2023/02/24 07:16:58;;;;;;;5.88;2.10;;;3.50;99.90;;;;;;7383144;19;20340;-78
2023/02/24 07:19:25;;;;;;;6.27;1.97;;;3.50;99.90;;;;;;7384244;19;20341;-79
2023/02/24 07:21:58;;;;;;;4.55;1.90;;;3.40;99.90;;;;;;7385978;19;20465;-79
2023/02/24 07:24:29;;;;;;;5.70;2.10;;;3.50;99.90;;;;;;7392868;19;20329;-78
2023/02/24 07:26:59;;;;;;;3.17;1.70;;;3.50;99.90;;;;;;7281167;19;2004454;-79
2023/02/24 07:29:25;;;;;;;5.78;1.85;;;3.50;99.90;;;;;;7382764;19;20346;-78
2023/02/24 07:31:53;;;;;;;2.35;1.52;;;3.60;99.90;;;;;;7383636;19;20344;-78
2023/02/24 07:34:23;;;;;;;5.40;1.77;;;3.60;99.90;;;;;;7384689;19;20305;-78
2023/02/24 07:36:53;;;;;;;3.15;1.75;;;3.60;99.90;;;;;;7382491;19;20305;-78
2023/02/24 07:39:19;;;;;;;5.53;2.15;;;3.60;99.90;;;;;;7382558;19;20843;-78
2023/02/24 07:41:48;;;;;;;5.13;2.03;;;3.60;99.90;;;;;;7384419;19;20348;-78
2023/02/24 07:44:14;;;;;;;3.38;2.05;;;3.50;99.90;;;;;;7386133;19;21192;-77
2023/02/24 07:46:41;;;;;;;5.88;2.10;;;3.60;99.90;;;;;;7382813;19;20319;-78
2023/02/24 07:49:11;;;;;;;5.13;2.40;;;3.50;99.90;;;;;;7381179;19;20353;-77
2023/02/24 07:51:37;;;;;;;3.53;1.80;;;3.60;99.90;;;;;;7382349;19;20810;-78
2023/02/24 07:54:03;;;;;;;5.88;2.30;;;3.60;99.90;;;;;;7383459;19;20340;-77
2023/02/24 07:56:29;;;;;;;2.58;1.73;;;3.60;99.90;;;;;;7381542;19;20392;-78
2023/02/24 07:59:00;;;;;;;3.15;1.90;;;3.70;99.90;;;;;;7381590;19;20677;-78
2023/02/24 08:01:29;;;;;;;3.97;2.58;;;3.70;99.90;;;;;;7383595;19;20316;-82
2023/02/24 08:03:59;;;;;;;8.38;3.10;;;3.80;99.90;;;;;;7383193;19;20352;-77
2023/02/24 08:06:36;;;;;;;5.10;2.15;;;3.80;99.90;;;;;;7382010;19;20301;-77
2023/02/24 08:09:17;;;;;;;3.78;1.48;;;3.80;99.90;;;;;;7379285;19;20890;-77
2023/02/24 08:11:51;;;;;;;4.30;1.75;;;3.90;99.90;;;;;;7384951;19;20394;-77
2023/02/24 08:14:18;;;;;;;2.85;1.42;;;3.90;99.90;;;;;;7383683;19;20321;-77
2023/02/24 08:16:45;;;;;;;6.63;1.92;;;3.80;99.90;;;;;;7380793;19;20307;-80
2023/02/24 08:19:19;;;;;;;5.07;1.30;;;3.70;99.90;;;;;;7383139;19;20405;-80
2023/02/24 08:21:49;;;;;;;2.53;2.10;;;3.70;99.90;;;;;;7385517;19;20943;-80
2023/02/24 08:24:22;;;;;;;4.20;1.73;;;3.80;99.90;;;;;;7388788;19;20348;-81
2023/02/24 08:27:05;;;;;;;3.03;1.83;;;3.80;99.90;;;;;;7389574;19;20310;-78
2023/02/24 08:29:38;;;;;;;2.95;1.70;;;3.70;99.90;;;;;;7279475;19;2004391;-77
2023/02/24 08:32:10;;;;;;;2.88;1.73;;;3.60;99.90;;;;;;7380313;19;20869;-78
2023/02/24 08:34:36;;;;;;;3.90;2.40;;;3.70;99.90;;;;;;7383237;19;20325;-78
2023/02/24 08:37:01;;;;;;;4.60;2.00;;;3.80;99.90;;;;;;7376462;19;20356;-76
2023/02/24 08:39:29;;;;;;;1.98;1.60;;;3.90;99.90;;;;;;7380785;19;20325;-76
2023/02/24 08:41:56;;;;;;;4.82;1.98;;;3.90;99.90;;;;;;7385043;19;20344;-77
2023/02/24 08:44:22;;;;;;;1.95;1.80;;;4.00;99.90;;;;;;7382674;19;20830;-76
2023/02/24 08:46:51;;;;;;;3.90;1.60;;;3.90;99.90;;;;;;7383425;19;20329;-78
2023/02/24 08:49:16;;;;;;;4.82;2.15;;;3.90;99.90;;;;;;7380683;19;20393;-77
2023/02/24 08:51:46;;;;;;;4.55;1.85;;;3.90;99.90;;;;;;7381236;19;21204;-78
2023/02/24 08:54:16;;;;;;;4.63;1.70;;;4.00;99.90;;;;;;7382202;19;20337;-76
2023/02/24 08:56:47;;;;;;;6.32;2.28;;;4.10;99.90;;;;;;7380039;19;20445;-76
2023/02/24 08:59:27;;;;;;;1.87;1.50;;;4.00;99.90;;;;;;7380395;19;20360;-76
2023/02/24 09:04:59;;;;;;;3.97;2.00;;;4.10;99.90;;;;;;7174826;19;2004454;-76
2023/02/24 09:07:34;;;;;;;6.28;2.58;;;4.20;99.90;;;;;;7382010;19;20328;-77
2023/02/24 09:10:00;;;;;;;5.40;1.83;;;4.20;99.90;;;;;;7279532;19;2004496;-76
2023/02/24 09:12:27;;;;;;;3.28;1.80;;;4.20;99.90;;;;;;7381507;19;20332;-76
2023/02/24 09:14:59;;;;;;;5.95;2.00;;;4.40;99.90;;;;;;7380415;19;20360;-77
2023/02/24 09:17:39;;;;;;;5.97;2.13;;;4.50;99.90;;;;;;7279233;19;2004700;-77
2023/02/24 09:22:56;;;;;;;4.20;1.75;;;4.40;99.90;;;;;;7388612;19;20340;-77
2023/02/24 09:25:24;;;;;;;2.92;1.88;;;4.10;99.90;;;;;;7388388;19;20316;-77
2023/02/24 09:27:54;;;;;;;5.63;2.03;;;4.20;99.90;;;;;;7386992;19;21299;-78
2023/02/24 09:30:34;;;;;;;4.80;2.13;;;4.20;99.90;;;;;;7383784;19;20649;-77
2023/02/24 09:33:07;;;;;;;5.55;2.13;;;4.30;99.90;;;;;;7283699;19;2004413;-76
2023/02/24 09:35:40;;;;;;;2.30;1.83;;;4.30;99.90;;;;;;7388296;19;20412;-76
2023/02/24 09:38:06;;;;;;;4.33;2.30;;;4.40;99.90;;;;;;7386782;19;20345;-76
2023/02/24 09:40:39;;;;;;;4.88;3.38;;;4.50;99.90;;;;;;7387761;19;20335;-76
2023/02/24 09:43:16;;;;;;;4.20;2.25;;;4.60;99.90;;;;;;7387306;19;20360;-77
2023/02/24 09:46:13;;;;;;;4.07;1.95;;;4.60;99.90;;;;;;7388470;19;20329;-77
2023/02/24 09:48:46;;;;;;;3.53;1.80;;;4.70;99.90;;;;;;7282664;19;2004821;-76
2023/02/24 09:51:20;;;;;;;4.80;2.20;;;4.70;99.90;;;;;;7385937;19;20356;-77
2023/02/24 09:53:51;;;;;;;4.43;1.90;;;4.50;99.90;;;;;;7388256;19;20317;-77
2023/02/24 09:56:41;;;;;;;4.27;2.23;;;4.60;99.90;;;;;;7385408;19;20313;-76
2023/02/24 09:59:25;;;;;;;4.22;2.03;;;4.60;99.90;;;;;;7279402;19;2005247;-76
2023/02/24 10:02:02;;;;;;;3.90;2.10;;;4.70;99.90;;;;;;7385372;19;20416;-77
2023/02/24 10:04:34;;;;;;;2.97;2.10;;;4.80;99.90;;;;;;7280684;19;2019147;-76
2023/02/24 10:07:23;;;;;;;3.05;2.00;;;4.80;99.90;;;;;;7383211;19;20885;-77
2023/02/24 10:09:51;;;;;;;3.70;1.90;;;4.90;99.90;;;;;;7382436;19;20321;-76
2023/02/24 10:12:20;;;;;;;3.90;1.92;;;4.80;99.90;;;;;;7384285;19;20312;-76
2023/02/24 10:15:17;;;;;;;4.95;2.33;;;4.80;99.90;;;;;;7384794;19;20806;-77
2023/02/24 10:18:05;;;;;;;3.30;2.00;;;4.90;99.90;;;;;;7282278;19;2004316;-77
2023/02/24 10:20:43;;;;;;;3.53;2.10;;;4.80;99.90;;;;;;7280930;19;2004359;-77
2023/02/24 10:23:31;;;;;;;3.10;2.17;;;5.00;99.90;;;;;;7384920;19;20357;-76
2023/02/24 10:26:30;;;;;;;4.43;2.20;;;5.10;99.90;;;;;;7281493;19;2004609;-77
2023/02/24 10:29:07;;;;;;;4.25;2.28;;;5.10;99.90;;;;;;7278956;19;2004619;-78
2023/02/24 10:31:46;;;;;;;3.83;2.03;;;5.10;99.90;;;;;;7383565;19;20343;-77
2023/02/24 10:34:25;;;;;;;3.42;2.10;;;5.00;99.90;;;;;;7383815;19;20416;-77
2023/02/24 10:36:51;;;;;;;3.58;2.03;;;5.00;99.90;;;;;;7382622;19;20336;-77
2023/02/24 10:39:19;;;;;;;4.53;2.20;;;4.90;99.90;;;;;;7382240;19;20321;-76
2023/02/24 10:41:56;;;;;;;4.00;2.33;;;5.00;99.90;;;;;;7383669;19;20309;-77
2023/02/24 10:44:26;;;;;;;7.40;2.97;;;5.00;99.90;;;;;;7385713;19;20340;-77
2023/02/24 10:47:10;;;;;;;5.40;2.40;;;4.90;99.90;;;;;;7383594;19;20360;-77
2023/02/24 10:49:55;;;;;;;5.47;2.20;;;5.00;99.90;;;;;;7280264;19;2004326;-77
2023/02/24 11:01:57;;;;;;;3.97;2.25;;;5.10;99.90;;;;;;7177224;19;2004882;-77
2023/02/24 11:04:42;;;;;;;6.88;2.50;;;5.10;99.90;;;;;;7282596;19;2005997;-80
2023/02/24 11:07:23;;;;;;;4.07;2.22;;;5.20;99.90;;;;;;7281781;19;2004469;-80
2023/02/24 11:09:51;;;;;;;4.63;2.05;;;5.30;99.90;;;;;;7380183;19;20312;-77
2023/02/24 11:18:01;;;;;;;5.45;2.35;;;5.40;99.90;;;;;;7280507;19;2004575;-77
2023/02/24 11:20:28;;;;;;;4.50;2.33;;;5.50;99.90;;;;;;7383270;19;20903;-78
2023/02/24 11:22:56;;;;;;;4.13;2.40;;;5.60;99.90;;;;;;7384177;19;20364;-78
2023/02/24 11:25:44;;;;;;;3.35;2.17;;;5.60;99.90;;;;;;7383184;19;20325;-78
2023/02/24 11:28:22;;;;;;;4.10;2.13;;;5.60;99.90;;;;;;7278753;19;2005964;-78
2023/02/24 11:30:51;;;;;;;6.35;2.40;;;5.50;99.90;;;;;;7382767;19;20324;-78
2023/02/24 11:33:29;;;;;;;2.08;1.88;;;5.50;99.90;;;;;;7384529;19;20988;-76
2023/02/24 11:36:13;;;;;;;7.88;2.47;;;5.60;99.90;;;;;;7383700;19;20345;-78
2023/02/24 11:38:45;;;;;;;5.85;2.47;;;5.70;99.90;;;;;;7280296;19;2004334;-78
2023/02/24 11:41:10;;;;;;;3.03;2.40;;;5.80;99.90;;;;;;7382781;19;20360;-78
2023/02/24 11:43:36;;;;;;;2.97;2.13;;;5.70;99.90;;;;;;7380705;19;20404;-78
2023/02/24 11:46:11;;;;;;;5.53;2.63;;;5.70;99.90;;;;;;7381731;19;20983;-77
2023/02/24 11:48:45;;;;;;;3.28;2.40;;;5.60;99.90;;;;;;7385311;19;20339;-77
2023/02/24 11:51:15;;;;;;;4.33;2.60;;;5.70;99.90;;;;;;7384357;19;20352;-77
2023/02/24 11:53:51;;;;;;;6.97;2.72;;;5.70;99.90;;;;;;7384288;19;20343;-76
2023/02/24 11:56:32;;;;;;;5.28;2.40;;;5.70;99.90;;;;;;7384500;19;20320;-76
2023/02/24 11:59:11;;;;;;;6.18;2.80;;;5.80;99.90;;;;;;7279707;19;2006763;-77
2023/02/24 12:01:43;;;;;;;5.03;2.70;;;5.70;99.90;;;;;;7384154;19;20320;-77
2023/02/24 12:04:25;;;;;;;4.07;2.33;;;5.70;99.90;;;;;;7381517;19;20341;-78
2023/02/24 12:07:06;;;;;;;8.88;3.03;;;5.70;99.90;;;;;;7381582;19;20347;-79
2023/02/24 12:09:58;;;;;;;4.75;2.60;;;5.70;99.90;;;;;;7280130;19;2004472;-77
2023/02/24 12:12:48;;;;;;;5.18;2.40;;;5.60;99.90;;;;;;7384625;19;20354;-76
2023/02/24 12:15:23;;;;;;;2.80;2.47;;;5.50;99.90;;;;;;7280245;19;2004522;-76
2023/02/24 12:18:11;;;;;;;4.18;2.75;;;5.60;99.90;;;;;;7382427;19;20938;-76
2023/02/24 12:20:48;;;;;;;4.85;3.13;;;5.50;99.90;;;;;;7283038;19;2004476;-78
2023/02/24 12:23:39;;;;;;;6.80;3.00;;;5.50;99.90;;;;;;7383544;19;20642;-77
2023/02/24 12:26:16;;;;;;;5.85;3.15;;;5.40;99.90;;;;;;7280806;19;2004195;-79
2023/02/24 12:29:19;;;;;;;5.90;2.90;;;5.50;99.90;;;;;;7382195;19;20325;-76
2023/02/24 12:31:53;;;;;;;6.60;2.93;;;5.50;99.90;;;;;;7281823;19;2004555;-77
2023/02/24 12:34:26;;;;;;;5.97;3.20;;;5.50;99.90;;;;;;7385106;19;20327;-77
2023/02/24 12:37:15;;;;;;;4.32;2.95;;;5.50;99.90;;;;;;7383758;19;20854;-77
2023/02/24 12:40:05;;;;;;;5.25;2.92;;;5.60;99.90;;;;;;7279970;19;2004923;-76
2023/02/24 12:42:51;;;;;;;4.75;3.30;;;5.60;99.90;;;;;;7282073;19;2004768;-78
2023/02/24 12:45:30;;;;;;;5.38;3.03;;;5.50;99.90;;;;;;7384996;19;20336;-77
2023/02/24 12:48:30;;;;;;;6.25;3.25;;;5.60;99.90;;;;;;7280578;19;2004552;-77
2023/02/24 12:51:24;;;;;;;5.75;3.35;;;5.60;99.90;;;;;;7279722;19;2004745;-78
2023/02/24 12:54:02;;;;;;;6.03;3.22;;;5.60;99.90;;;;;;7382973;19;20356;-76
2023/02/24 12:56:40;;;;;;;6.85;3.60;;;5.60;99.90;;;;;;7279715;19;2004392;-77
2023/02/24 12:59:06;;;;;;;6.97;3.10;;;5.60;99.90;;;;;;7380001;19;20337;-77
2023/02/24 13:01:53;;;;;;;7.30;3.40;;;5.80;99.90;;;;;;7383449;19;20358;-78
2023/02/24 13:05:00;;;;;;;6.30;2.95;;;5.80;99.90;;;;;;7382404;19;20843;-77
2023/02/24 13:07:38;;;;;;;5.93;3.15;;;5.80;99.90;;;;;;7179125;19;2006497;-78
2023/02/24 13:10:22;;;;;;;8.18;3.20;;;5.80;99.90;;;;;;7278312;19;2008906;-77
2023/02/24 13:13:07;;;;;;;7.85;3.55;;;5.80;99.90;;;;;;7382269;19;20331;-77
2023/02/24 13:15:33;;;;;;;7.68;3.45;;;5.80;99.90;;;;;;7279190;19;2004566;-78
2023/02/24 13:17:59;;;;;;;5.90;3.13;;;5.80;99.90;;;;;;7379479;19;20358;-77
2023/02/24 13:20:42;;;;;;;4.53;2.88;;;5.80;99.90;;;;;;7383267;19;20681;-77
2023/02/24 13:23:20;;;;;;;6.47;3.40;;;5.80;99.90;;;;;;7278853;19;2019906;-77
2023/02/24 13:25:50;;;;;;;5.55;3.35;;;5.90;99.90;;;;;;7382160;19;20349;-77
2023/02/24 13:28:26;;;;;;;5.57;3.30;;;5.90;99.90;;;;;;7360897;19;20333;-78
2023/02/24 13:31:00;;;;;;;4.43;3.13;;;5.80;99.90;;;;;;7380939;19;20368;-78
2023/02/24 13:33:44;;;;;;;8.10;3.10;;;5.80;99.90;;;;;;7381616;19;20319;-77
2023/02/24 13:36:11;;;;;;;6.05;2.60;;;5.70;99.90;;;;;;7277371;19;2019160;-78
2023/02/24 13:38:39;;;;;;;4.93;2.85;;;5.70;99.90;;;;;;7380822;19;20364;-77
2023/02/24 13:41:15;;;;;;;6.00;2.90;;;5.60;99.90;;;;;;7380647;19;20348;-77
2023/02/24 13:43:40;;;;;;;3.50;2.60;;;5.70;99.90;;;;;;7382177;19;20343;-77